createdAt,value
2018-03-29T00:02:14.325Z,57.80
2018-03-29T00:04:41.880Z,57.80
2018-03-29T00:07:09.446Z,57.90
2018-03-29T00:09:37.045Z,58.10
2018-03-29T00:12:04.635Z,59.60
2018-03-29T00:14:32.267Z,59.90
2018-03-29T00:16:59.836Z,58.80
2018-03-29T00:19:27.448Z,58.00
2018-03-29T00:21:55.039Z,58.80
2018-03-29T00:24:22.741Z,58.10
2018-03-29T00:26:51.042Z,58.00
2018-03-29T00:29:18.601Z,58.50
2018-03-29T00:31:46.233Z,56.70
2018-03-29T00:34:14.136Z,56.90
2018-03-29T00:36:41.696Z,58.00
2018-03-29T00:39:09.260Z,56.90
2018-03-29T00:41:36.838Z,56.90
2018-03-29T00:44:04.510Z,57.30
2018-03-29T00:46:32.958Z,57.70
2018-03-29T00:49:00.552Z,57.50
2018-03-29T00:51:28.137Z,56.80
2018-03-29T00:53:55.696Z,56.90
2018-03-29T00:56:23.272Z,56.90
2018-03-29T00:58:50.836Z,57.10
2018-03-29T01:01:19.206Z,57.00
2018-03-29T01:03:47.537Z,57.10
2018-03-29T01:06:15.056Z,57.00
2018-03-29T01:08:43.372Z,57.20
2018-03-29T01:11:10.958Z,57.10
2018-03-29T01:13:38.511Z,56.60
2018-03-29T01:16:06.043Z,56.50
2018-03-29T01:18:33.658Z,56.30
2018-03-29T01:21:01.203Z,55.90
2018-03-29T01:23:28.795Z,56.10
2018-03-29T01:25:57.113Z,55.50
2018-03-29T01:28:25.491Z,55.00
2018-03-29T01:30:53.049Z,54.90
2018-03-29T01:33:20.607Z,55.10
2018-03-29T01:35:48.579Z,54.80
2018-03-29T01:38:16.140Z,55.20
2018-03-29T01:40:43.700Z,55.00
2018-03-29T01:43:11.280Z,55.30
2018-03-29T01:45:38.853Z,55.70
2018-03-29T01:48:06.434Z,55.90
2018-03-29T01:50:34.740Z,56.10
2018-03-29T01:53:02.299Z,56.10
2018-03-29T01:55:29.869Z,55.60
2018-03-29T01:57:57.418Z,55.70
2018-03-29T02:00:24.942Z,54.50
2018-03-29T02:02:52.486Z,54.10
2018-03-29T02:05:20.047Z,53.30
2018-03-29T02:07:47.625Z,53.80
2018-03-29T02:10:15.183Z,52.40
2018-03-29T02:12:42.790Z,52.70
2018-03-29T02:15:10.315Z,52.20
2018-03-29T02:17:38.596Z,50.90
2018-03-29T02:20:06.160Z,50.90
2018-03-29T02:22:34.532Z,49.90
2018-03-29T02:25:02.875Z,50.60
2018-03-29T02:27:30.387Z,50.50
2018-03-29T02:29:57.932Z,50.70
2018-03-29T02:32:25.526Z,51.20
2018-03-29T02:34:53.096Z,50.40
2018-03-29T02:37:20.616Z,49.20
2018-03-29T02:39:48.204Z,49.10
2018-03-29T02:42:15.771Z,48.60
2018-03-29T02:44:43.353Z,48.80
2018-03-29T02:47:10.910Z,49.80
2018-03-29T02:49:38.456Z,50.30
2018-03-29T02:52:06.001Z,50.00
2018-03-29T02:54:33.563Z,50.70
2018-03-29T02:57:01.118Z,50.00
2018-03-29T02:59:28.740Z,49.70
2018-03-29T03:01:56.284Z,49.50
2018-03-29T03:04:23.874Z,49.80
2018-03-29T03:06:51.395Z,49.50
2018-03-29T03:09:18.940Z,49.70
2018-03-29T03:11:46.460Z,49.60
2018-03-29T03:14:14.017Z,49.70
2018-03-29T03:16:41.574Z,49.70
2018-03-29T03:19:09.114Z,49.60
2018-03-29T03:21:37.499Z,49.70
2018-03-29T03:24:05.891Z,49.70
2018-03-29T03:26:34.219Z,49.80
2018-03-29T03:29:01.732Z,49.80
2018-03-29T03:31:29.325Z,50.20
2018-03-29T03:33:56.902Z,50.40
2018-03-29T03:36:24.485Z,50.00
2018-03-29T03:38:52.047Z,50.20
2018-03-29T03:41:19.604Z,49.60
2018-03-29T03:43:47.191Z,49.70
2018-03-29T03:46:14.781Z,49.70
2018-03-29T03:48:42.356Z,49.50
2018-03-29T03:51:09.917Z,49.20
2018-03-29T03:53:37.474Z,49.60
2018-03-29T03:56:04.990Z,49.50
2018-03-29T03:58:32.556Z,50.70
2018-03-29T04:01:00.185Z,51.70
2018-03-29T04:03:27.745Z,52.20
2018-03-29T04:05:55.332Z,49.00
2018-03-29T04:08:22.916Z,49.00
2018-03-29T04:10:50.426Z,48.50
2018-03-29T04:13:18.041Z,49.00
2018-03-29T04:15:45.667Z,49.00
2018-03-29T04:18:14.018Z,49.70
2018-03-29T04:20:41.619Z,49.70
2018-03-29T04:23:09.167Z,50.20
2018-03-29T04:25:36.704Z,49.60
2018-03-29T04:28:04.245Z,50.70
2018-03-29T04:30:31.957Z,50.20
2018-03-29T04:32:59.567Z,50.10
2018-03-29T04:35:27.116Z,49.60
2018-03-29T04:37:54.783Z,49.20
2018-03-29T04:40:22.296Z,49.60
2018-03-29T04:42:49.896Z,48.50
2018-03-29T04:45:17.527Z,48.90
2018-03-29T04:47:45.083Z,49.00
2018-03-29T04:50:12.655Z,49.30
2018-03-29T04:52:40.244Z,48.70
2018-03-29T04:55:07.860Z,49.30
2018-03-29T04:57:35.463Z,49.70
2018-03-29T05:00:03.030Z,50.70
2018-03-29T05:02:30.573Z,50.90
2018-03-29T05:04:59.041Z,52.00
2018-03-29T05:07:26.610Z,52.20
2018-03-29T05:09:54.195Z,51.50
2018-03-29T05:12:22.538Z,51.10
2018-03-29T05:14:50.049Z,51.00
2018-03-29T05:17:17.649Z,50.20
2018-03-29T05:19:45.185Z,50.70
2018-03-29T05:22:12.769Z,50.30
2018-03-29T05:24:41.441Z,50.30
2018-03-29T05:27:14.775Z,50.60
2018-03-29T05:29:42.297Z,51.30
2018-03-29T05:32:09.898Z,51.50
2018-03-29T05:34:38.681Z,51.70
2018-03-29T05:37:06.252Z,52.30
2018-03-29T05:39:36.119Z,51.50
2018-03-29T05:42:03.753Z,51.00
2018-03-29T05:44:31.429Z,51.90
2018-03-29T05:46:59.008Z,52.00
2018-03-29T05:49:27.317Z,52.70
2018-03-29T05:51:54.827Z,52.80
2018-03-29T05:54:22.384Z,53.10
2018-03-29T05:56:49.951Z,52.70
2018-03-29T05:59:17.475Z,52.70
2018-03-29T06:01:45.049Z,52.40
2018-03-29T06:04:12.653Z,52.30
2018-03-29T06:06:40.245Z,52.40
2018-03-29T06:09:07.780Z,52.50
2018-03-29T06:11:35.392Z,52.80
2018-03-29T06:14:07.461Z,53.40
2018-03-29T06:16:41.390Z,53.20
2018-03-29T06:19:09.726Z,52.60
2018-03-29T06:21:37.284Z,52.60
2018-03-29T06:24:04.975Z,52.50
2018-03-29T06:26:32.546Z,52.40
2018-03-29T06:29:00.511Z,52.70
2018-03-29T06:31:29.265Z,51.80
2018-03-29T06:33:56.816Z,51.80
2018-03-29T06:36:24.850Z,51.90
2018-03-29T06:38:52.409Z,51.60
2018-03-29T06:41:20.047Z,51.70
2018-03-29T06:43:47.595Z,51.40
2018-03-29T06:46:15.504Z,50.00
2018-03-29T06:48:43.068Z,50.00
2018-03-29T06:51:12.127Z,49.30
2018-03-29T06:53:41.063Z,50.60
2018-03-29T06:56:08.654Z,47.90
2018-03-29T06:58:36.489Z,48.40
2018-03-29T07:01:04.056Z,48.90
2018-03-29T07:03:31.744Z,48.30
2018-03-29T07:05:59.473Z,47.60
2018-03-29T07:08:26.986Z,47.00
2018-03-29T07:10:55.568Z,45.60
2018-03-29T07:13:23.905Z,46.00
2018-03-29T07:15:51.641Z,45.90
2018-03-29T07:18:19.292Z,46.20
2018-03-29T07:20:46.849Z,44.70
2018-03-29T07:23:14.442Z,45.00
2018-03-29T07:25:42.772Z,45.60
2018-03-29T07:28:11.177Z,44.60
2018-03-29T07:30:38.747Z,44.50
2018-03-29T07:33:06.303Z,44.80
2018-03-29T07:35:34.090Z,43.70
2018-03-29T07:38:01.655Z,43.60
2018-03-29T07:40:29.576Z,45.10
2018-03-29T07:42:57.138Z,44.00
2018-03-29T07:45:25.470Z,43.70
2018-03-29T07:47:54.154Z,43.70
2018-03-29T07:50:22.558Z,43.80
2018-03-29T07:52:50.214Z,43.70
2018-03-29T07:55:17.756Z,43.20
2018-03-29T07:57:45.419Z,43.30
2018-03-29T08:00:13.102Z,43.20
2018-03-29T08:02:40.656Z,42.70
2018-03-29T08:05:08.270Z,42.40
2018-03-29T08:07:36.769Z,42.50
2018-03-29T08:10:04.415Z,42.80
2018-03-29T08:12:31.995Z,43.10
2018-03-29T08:14:59.515Z,43.00
2018-03-29T08:17:27.162Z,42.80
2018-03-29T08:19:54.789Z,41.70
2018-03-29T08:22:22.370Z,41.10
2018-03-29T08:24:50.005Z,41.10
2018-03-29T08:27:17.768Z,41.40
2018-03-29T08:29:45.358Z,40.00
2018-03-29T08:32:12.930Z,39.80
2018-03-29T08:34:40.686Z,39.60
2018-03-29T08:37:08.334Z,38.70
2018-03-29T08:39:36.075Z,38.00
2018-03-29T08:42:03.647Z,38.10
2018-03-29T08:44:31.288Z,38.70
2018-03-29T08:46:58.904Z,38.50
2018-03-29T08:49:26.437Z,37.80
2018-03-29T08:51:54.086Z,37.40
2018-03-29T08:54:24.336Z,38.00
2018-03-29T08:56:51.900Z,38.20
2018-03-29T08:59:19.431Z,39.00
2018-03-29T09:01:46.962Z,39.30
2018-03-29T09:04:14.808Z,39.00
2018-03-29T09:06:42.452Z,37.70
2018-03-29T09:09:10.080Z,38.30
2018-03-29T09:11:37.595Z,38.10
2018-03-29T09:14:05.950Z,38.20
2018-03-29T09:16:33.666Z,38.20
2018-03-29T09:19:01.326Z,39.10
2018-03-29T09:21:28.966Z,38.60
2018-03-29T09:23:56.542Z,38.20
2018-03-29T09:26:24.117Z,38.70
2018-03-29T09:28:51.696Z,38.80
2018-03-29T09:31:19.290Z,38.80
2018-03-29T09:33:46.915Z,38.20
2018-03-29T09:36:14.882Z,37.60
2018-03-29T09:38:42.432Z,38.00
2018-03-29T09:41:10.059Z,38.80
2018-03-29T09:43:37.659Z,38.70
2018-03-29T09:46:05.308Z,39.00
2018-03-29T09:48:32.912Z,38.30
2018-03-29T09:51:00.477Z,38.20
2018-03-29T09:53:28.060Z,37.80
2018-03-29T09:55:55.863Z,37.70
2018-03-29T09:58:23.564Z,38.60
2018-03-29T10:00:52.022Z,39.00
2018-03-29T10:03:22.447Z,39.00
2018-03-29T10:05:50.055Z,38.50
2018-03-29T10:08:17.697Z,38.20
2018-03-29T10:10:46.147Z,38.20
2018-03-29T10:13:13.688Z,38.10
2018-03-29T10:15:41.239Z,38.30
2018-03-29T10:18:08.904Z,38.90
2018-03-29T10:20:36.440Z,38.60
2018-03-29T10:23:04.037Z,38.10
2018-03-29T10:25:31.679Z,38.30
2018-03-29T10:27:59.230Z,38.60
2018-03-29T10:30:26.829Z,38.00
2018-03-29T10:32:54.348Z,37.10
2018-03-29T10:35:21.931Z,37.00
2018-03-29T10:37:49.488Z,37.70
2018-03-29T10:40:17.170Z,37.70
2018-03-29T10:42:44.727Z,37.20
2018-03-29T10:45:12.288Z,37.10
2018-03-29T10:47:39.891Z,37.70
2018-03-29T10:50:08.178Z,36.20
2018-03-29T10:52:35.740Z,36.20
2018-03-29T10:55:03.273Z,37.10
2018-03-29T10:57:30.843Z,36.50
2018-03-29T10:59:59.207Z,37.60
2018-03-29T11:02:26.773Z,36.70
2018-03-29T11:04:54.403Z,36.80
2018-03-29T11:07:21.999Z,37.00
2018-03-29T11:09:49.828Z,37.50
2018-03-29T11:12:17.394Z,36.50
2018-03-29T11:14:45.770Z,36.80
2018-03-29T11:17:13.297Z,37.70
2018-03-29T11:19:40.847Z,37.50
2018-03-29T11:22:08.467Z,36.50
2018-03-29T11:24:36.115Z,36.00
2018-03-29T11:27:03.763Z,36.20
2018-03-29T11:29:31.452Z,37.10
2018-03-29T11:31:59.004Z,36.20
2018-03-29T11:34:26.571Z,36.00
2018-03-29T11:36:54.294Z,36.10
2018-03-29T11:39:21.875Z,36.00
2018-03-29T11:41:49.517Z,35.40
2018-03-29T11:44:17.119Z,35.80
2018-03-29T11:46:44.833Z,35.10
2018-03-29T11:49:12.359Z,34.30
2018-03-29T11:51:40.707Z,36.60
2018-03-29T11:54:08.333Z,36.70
2018-03-29T11:56:36.901Z,35.30
2018-03-29T11:59:04.434Z,36.00
2018-03-29T12:01:32.795Z,35.10
2018-03-29T12:04:01.158Z,34.80
2018-03-29T12:06:28.710Z,34.70
2018-03-29T12:08:56.282Z,34.90
2018-03-29T12:11:24.434Z,35.00
2018-03-29T12:13:52.007Z,35.30
2018-03-29T12:16:19.587Z,35.30
2018-03-29T12:18:47.937Z,35.30
2018-03-29T12:21:16.151Z,35.30
2018-03-29T12:23:43.744Z,35.50
2018-03-29T12:26:11.708Z,35.60
2018-03-29T12:28:39.420Z,35.70
2018-03-29T12:31:07.011Z,35.70
2018-03-29T12:33:34.672Z,35.50
2018-03-29T12:36:03.043Z,35.50
2018-03-29T12:38:30.706Z,35.50
2018-03-29T12:40:59.844Z,35.60
2018-03-29T12:43:28.204Z,35.40
2018-03-29T12:45:55.788Z,35.20
2018-03-29T12:48:23.352Z,35.50
2018-03-29T12:50:50.916Z,35.40
2018-03-29T12:53:18.482Z,35.30
2018-03-29T12:55:46.214Z,35.30
2018-03-29T12:58:13.799Z,35.40
2018-03-29T13:00:41.364Z,34.90
2018-03-29T13:03:08.927Z,35.00
2018-03-29T13:05:36.507Z,35.00
2018-03-29T13:08:04.349Z,34.60
2018-03-29T13:10:31.901Z,34.50
2018-03-29T13:13:00.165Z,35.10
2018-03-29T13:15:27.725Z,34.60
2018-03-29T13:17:55.514Z,34.50
2018-03-29T13:20:23.090Z,35.00
2018-03-29T13:22:50.625Z,34.70
2018-03-29T13:25:18.227Z,34.80
2018-03-29T13:27:45.757Z,34.90
2018-03-29T13:30:13.390Z,35.40
2018-03-29T13:32:40.939Z,35.00
2018-03-29T13:35:09.247Z,34.90
2018-03-29T13:37:37.435Z,34.90
2018-03-29T13:40:04.985Z,35.00
2018-03-29T13:42:32.600Z,34.90
2018-03-29T13:45:00.960Z,35.40
2018-03-29T13:47:28.687Z,35.40
2018-03-29T13:49:56.261Z,35.60
2018-03-29T13:52:23.978Z,34.80
2018-03-29T13:54:52.347Z,34.60
2018-03-29T13:57:20.696Z,34.60
2018-03-29T13:59:48.660Z,34.50
2018-03-29T14:02:16.263Z,34.00
2018-03-29T14:04:44.684Z,35.10
2018-03-29T14:07:12.455Z,35.10
2018-03-29T14:09:45.266Z,35.10
2018-03-29T14:12:12.851Z,34.70
2018-03-29T14:14:41.245Z,35.10
2018-03-29T14:17:09.342Z,35.10
2018-03-29T14:19:37.825Z,35.00
2018-03-29T14:22:05.520Z,35.20
2018-03-29T14:24:33.112Z,34.90
2018-03-29T14:27:00.679Z,35.10
2018-03-29T14:29:29.019Z,35.30
2018-03-29T14:31:57.474Z,35.00
2018-03-29T14:34:25.051Z,34.80
2018-03-29T14:36:52.664Z,35.10
2018-03-29T14:39:21.183Z,34.80
2018-03-29T14:41:48.911Z,35.20
2018-03-29T14:44:16.598Z,35.70
2018-03-29T14:46:44.869Z,35.90
2018-03-29T14:49:12.508Z,35.80
2018-03-29T14:51:40.996Z,35.40
2018-03-29T14:54:10.429Z,35.70
2018-03-29T14:56:38.121Z,35.60
2018-03-29T14:59:05.758Z,35.50
2018-03-29T15:01:33.324Z,35.60
2018-03-29T15:04:01.176Z,35.80
2018-03-29T15:06:28.747Z,35.70
2018-03-29T15:08:56.403Z,35.70
2018-03-29T15:11:24.269Z,35.60
2018-03-29T15:13:51.898Z,35.50
2018-03-29T15:16:20.260Z,35.80
2018-03-29T15:18:48.079Z,35.60
2018-03-29T15:21:15.644Z,36.00
2018-03-29T15:23:43.196Z,35.80
2018-03-29T15:26:10.775Z,36.20
2018-03-29T15:28:38.325Z,36.60
2018-03-29T15:31:06.643Z,37.40
2018-03-29T15:33:34.241Z,37.40
2018-03-29T15:36:02.401Z,37.80
2018-03-29T15:38:30.257Z,38.00
2018-03-29T15:40:58.239Z,38.10
2018-03-29T15:43:25.776Z,38.10
2018-03-29T15:45:53.403Z,38.20
2018-03-29T15:48:21.844Z,38.00
2018-03-29T15:50:49.445Z,38.00
2018-03-29T15:53:17.078Z,38.30
2018-03-29T15:55:44.706Z,37.70
2018-03-29T15:58:12.429Z,38.50
2018-03-29T16:00:41.089Z,38.40
2018-03-29T16:03:08.737Z,38.70
2018-03-29T16:05:36.296Z,38.50
2018-03-29T16:08:04.300Z,38.30
2018-03-29T16:10:31.860Z,38.70
2018-03-29T16:12:59.765Z,38.90
2018-03-29T16:15:27.355Z,39.10
2018-03-29T16:17:54.959Z,39.10
2018-03-29T16:20:23.092Z,39.40
2018-03-29T16:22:50.678Z,39.50
2018-03-29T16:25:18.742Z,39.40
2018-03-29T16:27:46.316Z,39.30
2018-03-29T16:30:13.940Z,39.60
2018-03-29T16:32:41.480Z,39.50
2018-03-29T16:35:09.086Z,39.50
2018-03-29T16:37:36.612Z,39.50
2018-03-29T16:40:04.592Z,39.70
2018-03-29T16:42:32.359Z,39.70
2018-03-29T16:44:59.987Z,39.50
2018-03-29T16:47:27.782Z,39.40
2018-03-29T16:49:55.383Z,39.60
2018-03-29T16:52:23.691Z,39.60
2018-03-29T16:54:52.021Z,39.80
2018-03-29T16:57:19.581Z,39.80
2018-03-29T16:59:47.158Z,39.80
2018-03-29T17:02:14.722Z,39.80
2018-03-29T17:04:42.265Z,39.80
2018-03-29T17:07:09.904Z,39.70
2018-03-29T17:09:37.664Z,39.70
2018-03-29T17:12:05.468Z,39.70
2018-03-29T17:14:33.036Z,39.60
2018-03-29T17:17:01.333Z,39.60
2018-03-29T17:19:29.704Z,39.60
2018-03-29T17:21:58.172Z,39.60
2018-03-29T17:24:25.745Z,39.50
2018-03-29T17:26:53.450Z,39.30
2018-03-29T17:29:22.253Z,39.50
2018-03-29T17:31:49.831Z,39.60
2018-03-29T17:34:17.357Z,39.70
2018-03-29T17:36:44.942Z,40.10
2018-03-29T17:39:12.479Z,39.90
2018-03-29T17:41:40.051Z,39.90
2018-03-29T17:44:07.663Z,39.90
2018-03-29T17:46:35.262Z,39.90
2018-03-29T17:49:02.835Z,39.60
2018-03-29T17:51:30.486Z,39.80
2018-03-29T17:53:58.337Z,40.50
2018-03-29T17:56:25.921Z,39.90
2018-03-29T17:58:53.455Z,39.60
2018-03-29T18:01:21.082Z,39.40
2018-03-29T18:03:48.609Z,39.40
2018-03-29T18:06:16.181Z,39.50
2018-03-29T18:08:43.775Z,39.80
2018-03-29T18:11:12.090Z,39.40
2018-03-29T18:13:39.648Z,39.20
2018-03-29T18:16:07.261Z,39.30
2018-03-29T18:18:35.742Z,39.60
2018-03-29T18:21:04.079Z,40.20
2018-03-29T18:23:31.697Z,40.20
2018-03-29T18:25:59.227Z,41.00
2018-03-29T18:28:26.815Z,41.50
2018-03-29T18:30:55.134Z,42.40
2018-03-29T18:33:22.744Z,42.40
2018-03-29T18:35:50.355Z,43.50
2018-03-29T18:38:17.947Z,43.40
2018-03-29T18:40:45.490Z,44.10
2018-03-29T18:43:13.039Z,43.60
2018-03-29T18:45:40.628Z,43.90
2018-03-29T18:48:08.352Z,43.60
2018-03-29T18:50:36.091Z,43.80
2018-03-29T18:53:05.376Z,44.10
2018-03-29T18:55:33.668Z,44.70
2018-03-29T18:58:01.224Z,44.60
2018-03-29T19:00:29.551Z,45.00
2018-03-29T19:02:57.086Z,45.00
2018-03-29T19:05:24.718Z,45.30
2018-03-29T19:07:52.240Z,45.40
2018-03-29T19:10:19.784Z,45.60
2018-03-29T19:12:47.580Z,46.10
2018-03-29T19:15:15.139Z,46.30
2018-03-29T19:17:42.700Z,46.40
2018-03-29T19:20:10.994Z,46.60
2018-03-29T19:22:38.512Z,46.70
2018-03-29T19:25:06.100Z,47.00
2018-03-29T19:27:33.627Z,46.70
2018-03-29T19:30:01.223Z,46.50
2018-03-29T19:32:29.532Z,46.80
2018-03-29T19:34:57.168Z,46.70
2018-03-29T19:37:24.810Z,47.60
2018-03-29T19:39:52.365Z,47.90
2018-03-29T19:42:20.003Z,48.40
2018-03-29T19:44:47.536Z,48.20
2018-03-29T19:47:15.143Z,48.00
2018-03-29T19:49:42.702Z,48.70
2018-03-29T19:52:10.252Z,48.70
2018-03-29T19:54:37.847Z,48.80
2018-03-29T19:57:06.516Z,49.30
2018-03-29T19:59:34.115Z,49.40
2018-03-29T20:02:01.794Z,49.10
2018-03-29T20:04:29.342Z,49.50
2018-03-29T20:06:56.897Z,49.70
2018-03-29T20:09:24.428Z,49.70
2018-03-29T20:11:52.067Z,49.50
2018-03-29T20:14:19.630Z,49.80
2018-03-29T20:16:47.167Z,50.00
2018-03-29T20:19:14.745Z,50.10
2018-03-29T20:21:42.398Z,50.00
2018-03-29T20:24:10.055Z,50.20
2018-03-29T20:26:37.619Z,50.00
2018-03-29T20:29:05.530Z,49.80
2018-03-29T20:31:33.425Z,49.60
2018-03-29T20:34:01.167Z,50.30
2018-03-29T20:36:28.709Z,50.80
2018-03-29T20:38:57.047Z,51.80
2018-03-29T20:41:24.639Z,51.70
2018-03-29T20:43:52.198Z,51.70
2018-03-29T20:46:19.727Z,52.00
2018-03-29T20:48:47.762Z,51.60
2018-03-29T20:51:15.313Z,51.90
2018-03-29T20:53:43.631Z,52.10
2018-03-29T20:56:11.242Z,52.00
2018-03-29T20:58:38.836Z,51.90
2018-03-29T21:01:06.367Z,51.70
2018-03-29T21:03:34.762Z,51.60
2018-03-29T21:06:03.079Z,51.60
2018-03-29T21:08:30.693Z,51.60
2018-03-29T21:10:58.263Z,51.70
2018-03-29T21:13:25.840Z,51.50
2018-03-29T21:15:53.350Z,51.00
2018-03-29T21:18:20.915Z,51.10
2018-03-29T21:20:48.493Z,50.90
2018-03-29T21:23:17.026Z,51.50
2018-03-29T21:25:44.615Z,51.50
2018-03-29T21:28:12.949Z,51.80
2018-03-29T21:30:40.526Z,51.80
2018-03-29T21:33:09.378Z,51.80
2018-03-29T21:35:37.028Z,51.80
2018-03-29T21:38:04.546Z,51.80
2018-03-29T21:40:32.124Z,52.10
2018-03-29T21:42:59.685Z,52.10
2018-03-29T21:45:27.521Z,52.10
2018-03-29T21:47:55.046Z,52.20
2018-03-29T21:50:22.839Z,52.30
2018-03-29T21:52:50.389Z,52.50
2018-03-29T21:55:17.949Z,52.80
2018-03-29T21:57:45.497Z,52.80
2018-03-29T22:00:13.051Z,52.70
2018-03-29T22:02:40.593Z,52.70
2018-03-29T22:05:08.168Z,52.60
2018-03-29T22:07:35.694Z,52.40
2018-03-29T22:10:04.009Z,52.50
2018-03-29T22:12:31.588Z,52.40
2018-03-29T22:14:59.136Z,52.40
2018-03-29T22:17:26.671Z,52.30
2018-03-29T22:19:54.236Z,52.10
2018-03-29T22:22:22.717Z,52.20
2018-03-29T22:24:50.244Z,52.10
2018-03-29T22:27:17.820Z,52.50
2018-03-29T22:29:46.145Z,52.90
2018-03-29T22:32:13.729Z,52.80
2018-03-29T22:34:42.318Z,52.90
2018-03-29T22:37:09.842Z,52.80
2018-03-29T22:39:37.485Z,52.90
2018-03-29T22:42:05.178Z,52.90
2018-03-29T22:44:32.705Z,52.90
2018-03-29T22:47:01.148Z,52.80
2018-03-29T22:49:28.712Z,53.00
2018-03-29T22:51:56.229Z,52.90
2018-03-29T22:54:23.804Z,52.70
2018-03-29T22:56:51.394Z,52.60
2018-03-29T22:59:18.983Z,52.70
2018-03-29T23:01:46.529Z,52.70
2018-03-29T23:04:14.852Z,52.60
2018-03-29T23:06:42.373Z,52.50
2018-03-29T23:09:10.682Z,52.50
2018-03-29T23:11:38.451Z,52.50
2018-03-29T23:14:06.019Z,52.40
2018-03-29T23:16:33.549Z,52.20
2018-03-29T23:19:01.108Z,52.30
2018-03-29T23:21:28.629Z,52.40
2018-03-29T23:23:56.961Z,52.70
2018-03-29T23:26:24.475Z,52.70
2018-03-29T23:28:52.796Z,52.50
2018-03-29T23:31:20.343Z,52.50
2018-03-29T23:33:47.901Z,52.50
2018-03-29T23:36:15.475Z,52.70
2018-03-29T23:38:43.248Z,53.00
2018-03-29T23:41:11.607Z,53.00
2018-03-29T23:43:39.432Z,53.00
2018-03-29T23:46:06.991Z,53.00
2018-03-29T23:48:34.616Z,53.40
2018-03-29T23:51:02.139Z,52.90
2018-03-29T23:53:29.694Z,52.70
2018-03-29T23:55:57.234Z,52.60
2018-03-29T23:58:24.750Z,52.80
